createdAt,value
2018-07-22T00:01:25.048Z,98065.13
2018-07-22T00:03:54.213Z,98066.01
2018-07-22T00:06:23.589Z,98067.11
2018-07-22T00:08:52.864Z,98064.48
2018-07-22T00:11:22.066Z,98060.89
2018-07-22T00:13:51.335Z,98065.29
2018-07-22T00:16:20.538Z,98073.41
2018-07-22T00:18:49.755Z,98067.75
2018-07-22T00:21:19.062Z,98062.67
2018-07-22T00:23:48.221Z,98065.54
2018-07-22T00:26:17.384Z,98072.05
2018-07-22T00:28:46.578Z,98066.17
2018-07-22T00:31:15.818Z,98071.09
2018-07-22T00:33:44.981Z,98064.11
2018-07-22T00:36:14.178Z,98064.66
2018-07-22T00:38:43.411Z,98064.41
2018-07-22T00:41:12.593Z,98069.81
2018-07-22T00:43:41.815Z,98063.61
2018-07-22T00:46:11.078Z,98070.38
2018-07-22T00:48:40.224Z,98067.66
2018-07-22T00:51:09.577Z,98062.97
2018-07-22T00:53:38.743Z,98060.27
2018-07-22T00:56:07.920Z,98058.06
2018-07-22T00:58:37.112Z,98059.41
2018-07-22T01:01:08.026Z,98056.79
2018-07-22T01:03:37.321Z,98053.28
2018-07-22T01:06:06.513Z,98055.73
2018-07-22T01:08:35.688Z,98054.00
2018-07-22T01:11:04.923Z,98055.66
2018-07-22T01:13:34.207Z,98061.95
2018-07-22T01:16:03.394Z,98050.96
2018-07-22T01:18:32.578Z,98064.27
2018-07-22T01:21:01.738Z,98065.45
2018-07-22T01:23:30.896Z,98062.03
2018-07-22T01:26:00.106Z,98066.17
2018-07-22T01:28:29.281Z,98063.30
2018-07-22T01:30:58.646Z,98056.31
2018-07-22T01:33:27.845Z,98059.70
2018-07-22T01:35:57.006Z,98058.69
2018-07-22T01:38:26.197Z,98061.72
2018-07-22T01:40:55.403Z,98050.81
2018-07-22T01:43:24.954Z,98051.37
2018-07-22T01:45:54.370Z,98053.52
2018-07-22T01:48:23.552Z,98050.56
2018-07-22T01:50:52.714Z,98057.08
2018-07-22T01:53:21.920Z,98062.98
2018-07-22T01:55:51.069Z,98061.86
2018-07-22T01:58:20.265Z,98061.86
2018-07-22T02:00:49.418Z,98063.38
2018-07-22T02:03:18.602Z,98057.33
2018-07-22T02:05:47.799Z,98064.09
2018-07-22T02:08:16.952Z,98065.99
2018-07-22T02:10:46.161Z,98063.84
2018-07-22T02:13:15.324Z,98057.73
2018-07-22T02:15:44.482Z,98064.50
2018-07-22T02:18:13.734Z,98060.74
2018-07-22T02:20:42.947Z,98060.02
2018-07-22T02:23:12.744Z,98058.27
2018-07-22T02:25:41.888Z,98060.48
2018-07-22T02:28:11.090Z,98057.77
2018-07-22T02:30:40.239Z,98049.41
2018-07-22T02:33:09.454Z,98046.70
2018-07-22T02:35:38.998Z,98049.66
2018-07-22T02:38:08.231Z,98051.73
2018-07-22T02:40:37.378Z,98044.59
2018-07-22T02:43:06.812Z,98046.34
2018-07-22T02:45:36.001Z,98043.55
2018-07-22T02:48:05.163Z,98034.25
2018-07-22T02:50:34.337Z,98035.77
2018-07-22T02:53:03.470Z,98038.78
2018-07-22T02:55:32.613Z,98036.80
2018-07-22T02:58:01.777Z,98031.94
2018-07-22T03:00:31.791Z,98039.28
2018-07-22T03:03:00.918Z,98036.25
2018-07-22T03:05:30.077Z,98034.59
2018-07-22T03:07:59.225Z,98029.31
2018-07-22T03:10:28.371Z,98036.63
2018-07-22T03:12:57.524Z,98033.45
2018-07-22T03:15:26.674Z,98038.95
2018-07-22T03:17:55.865Z,98041.96
2018-07-22T03:20:25.039Z,98042.13
2018-07-22T03:22:54.221Z,98034.42
2018-07-22T03:25:23.376Z,98039.75
2018-07-22T03:27:52.538Z,98031.21
2018-07-22T03:30:21.686Z,98037.98
2018-07-22T03:32:50.827Z,98042.28
2018-07-22T03:35:20.007Z,98045.80
2018-07-22T03:37:49.122Z,98044.44
2018-07-22T03:40:18.222Z,98049.13
2018-07-22T03:42:47.380Z,98049.44
2018-07-22T03:45:16.509Z,98045.54
2018-07-22T03:47:45.673Z,98054.12
2018-07-22T03:50:14.886Z,98048.32
2018-07-22T03:52:44.001Z,98057.33
2018-07-22T03:55:13.136Z,98060.25
2018-07-22T03:57:43.893Z,98056.82
2018-07-22T04:00:13.765Z,98057.37
2018-07-22T04:02:42.888Z,98057.63
2018-07-22T04:05:12.046Z,98058.98
2018-07-22T04:07:41.189Z,98050.14
2018-07-22T04:10:10.362Z,98049.67
2018-07-22T04:12:40.149Z,98045.83
2018-07-22T04:15:09.504Z,98042.56
2018-07-22T04:17:38.624Z,98043.91
2018-07-22T04:20:07.810Z,98037.86
2018-07-22T04:22:36.921Z,98038.50
2018-07-22T04:25:06.149Z,98039.85
2018-07-22T04:27:35.348Z,98036.84
2018-07-22T04:30:04.906Z,98040.10
2018-07-22T04:32:34.016Z,98039.21
2018-07-22T04:35:03.265Z,98038.48
2018-07-22T04:37:32.397Z,98035.22
2018-07-22T04:40:01.552Z,98042.64
2018-07-22T04:42:30.850Z,98051.08
2018-07-22T04:44:59.973Z,98050.36
2018-07-22T04:47:29.116Z,98051.47
2018-07-22T04:49:58.269Z,98054.17
2018-07-22T04:52:27.413Z,98053.07
2018-07-22T04:54:56.813Z,98055.78
2018-07-22T04:57:25.998Z,98057.34
2018-07-22T04:59:55.113Z,98051.47
2018-07-22T05:02:24.291Z,98057.98
2018-07-22T05:04:53.545Z,98060.55
2018-07-22T05:07:22.664Z,98052.11
2018-07-22T05:09:51.802Z,98061.66
2018-07-22T05:12:20.980Z,98064.30
2018-07-22T05:14:50.079Z,98064.22
2018-07-22T05:17:19.213Z,98069.45
2018-07-22T05:19:48.366Z,98072.63
2018-07-22T05:22:17.503Z,98066.36
2018-07-22T05:24:46.626Z,98072.87
2018-07-22T05:27:15.781Z,98079.47
2018-07-22T05:29:44.909Z,98074.48
2018-07-22T05:32:14.044Z,98073.98
2018-07-22T05:34:43.217Z,98080.36
2018-07-22T05:37:12.308Z,98072.33
2018-07-22T05:39:41.420Z,98075.84
2018-07-22T05:42:10.624Z,98072.70
2018-07-22T05:44:39.685Z,98076.53
2018-07-22T05:47:08.991Z,98079.79
2018-07-22T05:49:38.140Z,98077.63
2018-07-22T05:52:07.303Z,98081.23
2018-07-22T05:54:36.428Z,98086.24
2018-07-22T05:57:05.703Z,98078.55
2018-07-22T05:59:35.018Z,98085.53
2018-07-22T06:02:04.170Z,98085.94
2018-07-22T06:04:33.320Z,98092.09
2018-07-22T06:07:02.457Z,98098.32
2018-07-22T06:09:31.705Z,98085.66
2018-07-22T06:12:01.228Z,98094.51
2018-07-22T06:14:31.330Z,98096.72
2018-07-22T06:17:00.524Z,98097.84
2018-07-22T06:19:29.725Z,98096.41
2018-07-22T06:21:59.229Z,98094.41
2018-07-22T06:24:28.430Z,98098.38
2018-07-22T06:26:57.592Z,98095.03
2018-07-22T06:29:26.790Z,98096.16
2018-07-22T06:31:55.987Z,98094.02
2018-07-22T06:34:25.139Z,98095.11
2018-07-22T06:36:54.288Z,98092.95
2018-07-22T06:39:23.442Z,98090.98
2018-07-22T06:41:52.641Z,98092.58
2018-07-22T06:44:21.992Z,98096.94
2018-07-22T06:46:51.205Z,98095.75
2018-07-22T06:49:20.379Z,98097.83
2018-07-22T06:51:49.562Z,98103.96
2018-07-22T06:54:18.824Z,98103.58
2018-07-22T06:56:48.002Z,98107.06
2018-07-22T06:59:17.157Z,98111.68
2018-07-22T07:01:46.321Z,98110.91
2018-07-22T07:04:15.501Z,98106.50
2018-07-22T07:06:44.691Z,98104.21
2018-07-22T07:09:13.866Z,98100.22
2018-07-22T07:11:43.083Z,98096.64
2018-07-22T07:14:12.362Z,98100.99
2018-07-22T07:16:41.601Z,98101.80
2018-07-22T07:19:11.400Z,98095.77
2018-07-22T07:21:40.598Z,98104.27
2018-07-22T07:24:09.773Z,98101.27
2018-07-22T07:26:39.011Z,98098.78
2018-07-22T07:29:08.231Z,98095.44
2018-07-22T07:31:38.801Z,98090.28
2018-07-22T07:34:08.177Z,98086.05
2018-07-22T07:36:37.367Z,98076.36
2018-07-22T07:39:09.259Z,98080.34
2018-07-22T07:41:38.778Z,98072.69
2018-07-22T07:44:07.977Z,98074.13
2018-07-22T07:46:37.185Z,98077.77
2018-07-22T07:49:06.488Z,98078.41
2018-07-22T07:51:35.655Z,98078.27
2018-07-22T07:54:04.846Z,98078.66
2018-07-22T07:56:34.007Z,98082.00
2018-07-22T07:59:03.191Z,98074.77
2018-07-22T08:01:32.433Z,98081.69
2018-07-22T08:04:01.631Z,98085.50
2018-07-22T08:06:30.828Z,98084.70
2018-07-22T08:09:00.025Z,98082.46
2018-07-22T08:11:29.220Z,98087.65
2018-07-22T08:13:58.401Z,98086.92
2018-07-22T08:16:27.549Z,98090.66
2018-07-22T08:18:56.848Z,98086.67
2018-07-22T08:21:26.478Z,98089.05
2018-07-22T08:23:55.172Z,98096.16
2018-07-22T08:26:24.349Z,98098.23
2018-07-22T08:29:30.286Z,98098.06
2018-07-22T08:31:59.933Z,98105.33
2018-07-22T08:34:29.257Z,98107.53
2018-07-22T08:36:58.524Z,98108.51
2018-07-22T08:39:28.900Z,98114.86
2018-07-22T08:41:58.704Z,98115.83
2018-07-22T08:44:27.909Z,98123.64
2018-07-22T08:46:57.068Z,98128.17
2018-07-22T08:49:26.228Z,98129.91
2018-07-22T08:51:55.472Z,98126.48
2018-07-22T08:54:24.738Z,98130.97
2018-07-22T08:56:53.932Z,98131.10
2018-07-22T08:59:23.146Z,98133.75
2018-07-22T09:01:52.361Z,98134.30
2018-07-22T09:04:21.635Z,98138.28
2018-07-22T09:06:50.838Z,98137.18
2018-07-22T09:09:20.042Z,98136.84
2018-07-22T09:11:49.297Z,98144.16
2018-07-22T09:14:18.471Z,98146.48
2018-07-22T09:16:47.669Z,98139.25
2018-07-22T09:19:16.873Z,98151.55
2018-07-22T09:21:46.136Z,98155.30
2018-07-22T09:24:15.348Z,98152.27
2018-07-22T09:26:44.549Z,98159.83
2018-07-22T09:29:13.797Z,98156.18
2018-07-22T09:31:43.024Z,98154.58
2018-07-22T09:34:12.193Z,98162.78
2018-07-22T09:36:41.442Z,98164.37
2018-07-22T09:39:12.116Z,98161.04
2018-07-22T09:41:41.429Z,98163.41
2018-07-22T09:44:10.672Z,98160.23
2018-07-22T09:46:39.948Z,98157.83
2018-07-22T09:49:09.235Z,98159.73
2018-07-22T09:51:38.515Z,98165.40
2018-07-22T09:54:07.693Z,98161.09
2018-07-22T09:56:36.855Z,98166.28
2018-07-22T09:59:06.110Z,98163.48
2018-07-22T10:01:35.255Z,98165.08
2018-07-22T10:04:04.588Z,98168.00
2018-07-22T10:06:33.775Z,98164.45
2018-07-22T10:09:02.952Z,98175.34
2018-07-22T10:11:32.204Z,98170.35
2018-07-22T10:14:01.374Z,98171.09
2018-07-22T10:16:30.516Z,98173.38
2018-07-22T10:18:59.716Z,98167.25
2018-07-22T10:21:28.857Z,98168.87
2018-07-22T10:23:58.042Z,98170.61
2018-07-22T10:26:27.270Z,98167.56
2018-07-22T10:28:56.462Z,98171.36
2018-07-22T10:31:25.603Z,98169.28
2018-07-22T10:33:54.840Z,98175.88
2018-07-22T10:36:24.028Z,98171.63
2018-07-22T10:38:53.249Z,98172.42
2018-07-22T10:41:22.438Z,98172.64
2018-07-22T10:43:51.634Z,98176.86
2018-07-22T10:46:20.793Z,98178.29
2018-07-22T10:48:49.989Z,98174.05
2018-07-22T10:51:19.161Z,98172.38
2018-07-22T10:53:48.334Z,98174.76
2018-07-22T10:56:17.498Z,98182.34
2018-07-22T10:58:46.728Z,98185.94
2018-07-22T11:01:16.716Z,98182.95
2018-07-22T11:03:45.915Z,98177.36
2018-07-22T11:06:15.138Z,98185.55
2018-07-22T11:08:44.332Z,98187.84
2018-07-22T11:11:13.523Z,98180.66
2018-07-22T11:13:43.895Z,98184.17
2018-07-22T11:16:13.064Z,98187.53
2018-07-22T11:18:42.282Z,98183.03
2018-07-22T11:21:11.559Z,98175.17
2018-07-22T11:23:40.737Z,98188.80
2018-07-22T11:26:09.909Z,98187.09
2018-07-22T11:28:39.132Z,98188.70
2018-07-22T11:31:08.357Z,98187.81
2018-07-22T11:33:37.539Z,98190.95
2018-07-22T11:36:06.787Z,98189.34
2018-07-22T11:38:35.932Z,98185.74
2018-07-22T11:41:05.095Z,98193.33
2018-07-22T11:43:34.293Z,98188.70
2018-07-22T11:46:03.504Z,98192.61
2018-07-22T11:48:32.704Z,98199.70
2018-07-22T11:51:01.897Z,98195.05
2018-07-22T11:53:31.059Z,98190.30
2018-07-22T11:56:00.325Z,98196.59
2018-07-22T11:58:29.530Z,98197.09
2018-07-22T12:00:58.720Z,98193.91
2018-07-22T12:03:27.935Z,98192.61
2018-07-22T12:05:57.173Z,98188.80
2018-07-22T12:08:26.338Z,98192.00
2018-07-22T12:10:55.527Z,98197.17
2018-07-22T12:13:24.744Z,98192.00
2018-07-22T12:15:53.912Z,98190.24
2018-07-22T12:18:23.146Z,98194.59
2018-07-22T12:20:52.424Z,98197.61
2018-07-22T12:23:21.593Z,98191.04
2018-07-22T12:25:50.909Z,98195.51
2018-07-22T12:28:20.102Z,98194.27
2018-07-22T12:30:49.269Z,98195.47
2018-07-22T12:33:18.652Z,98199.91
2018-07-22T12:35:47.857Z,98207.84
2018-07-22T12:38:17.018Z,98194.46
2018-07-22T12:40:46.243Z,98199.23
2018-07-22T12:43:15.608Z,98201.48
2018-07-22T12:45:44.805Z,98201.95
2018-07-22T12:48:14.026Z,98206.36
2018-07-22T12:50:43.238Z,98211.91
2018-07-22T12:53:12.702Z,98217.77
2018-07-22T12:55:41.902Z,98208.20
2018-07-22T12:58:11.128Z,98213.17
2018-07-22T13:00:40.283Z,98210.30
2018-07-22T13:03:09.569Z,98213.75
2018-07-22T13:05:38.786Z,98216.87
2018-07-22T13:08:08.063Z,98212.24
2018-07-22T13:10:37.227Z,98208.67
2018-07-22T13:13:06.723Z,98215.75
2018-07-22T13:15:35.876Z,98216.73
2018-07-22T13:18:05.145Z,98215.94
2018-07-22T13:20:34.673Z,98219.30
2018-07-22T13:23:03.917Z,98219.45
2018-07-22T13:25:33.132Z,98214.84
2018-07-22T13:28:02.344Z,98214.84
2018-07-22T13:30:31.538Z,98214.51
2018-07-22T13:33:00.710Z,98217.69
2018-07-22T13:35:29.965Z,98219.53
2018-07-22T13:37:59.174Z,98219.20
2018-07-22T13:40:28.338Z,98221.27
2018-07-22T13:42:57.533Z,98226.05
2018-07-22T13:45:26.820Z,98220.87
2018-07-22T13:47:55.995Z,98226.38
2018-07-22T13:50:25.208Z,98225.03
2018-07-22T13:52:54.414Z,98219.93
2018-07-22T13:55:23.660Z,98228.58
2018-07-22T13:57:52.929Z,98223.55
2018-07-22T14:00:22.131Z,98224.52
2018-07-22T14:02:51.282Z,98235.45
2018-07-22T14:05:20.504Z,98233.69
2018-07-22T14:07:49.692Z,98237.38
2018-07-22T14:10:19.136Z,98240.80
2018-07-22T14:12:48.373Z,98235.13
2018-07-22T14:15:17.565Z,98236.33
2018-07-22T14:17:46.860Z,98240.89
2018-07-22T14:20:16.004Z,98232.76
2018-07-22T14:22:45.988Z,98235.38
2018-07-22T14:25:15.133Z,98234.83
2018-07-22T14:27:44.376Z,98235.30
2018-07-22T14:30:14.323Z,98221.19
2018-07-22T14:32:43.522Z,98229.87
2018-07-22T14:35:12.948Z,98231.06
2018-07-22T14:37:42.079Z,98235.13
2018-07-22T14:40:11.253Z,98238.00
2018-07-22T14:42:40.461Z,98229.53
2018-07-22T14:45:10.042Z,98235.45
2018-07-22T14:47:39.213Z,98231.77
2018-07-22T14:50:08.452Z,98242.23
2018-07-22T14:52:37.635Z,98239.58
2018-07-22T14:55:06.958Z,98240.72
2018-07-22T14:57:36.146Z,98242.80
2018-07-22T15:00:05.802Z,98245.59
2018-07-22T15:02:34.984Z,98248.94
2018-07-22T15:05:04.220Z,98257.31
2018-07-22T15:07:33.366Z,98254.98
2018-07-22T15:10:02.586Z,98256.09
2018-07-22T15:12:31.776Z,98262.14
2018-07-22T15:15:00.960Z,98264.00
2018-07-22T15:17:30.149Z,98272.68
2018-07-22T15:19:59.325Z,98273.88
2018-07-22T15:22:28.590Z,98264.30
2018-07-22T15:24:57.798Z,98259.86
2018-07-22T15:27:27.000Z,98269.64
2018-07-22T15:29:56.165Z,98261.67
2018-07-22T15:32:25.339Z,98263.28
2018-07-22T15:34:54.539Z,98263.28
2018-07-22T15:37:23.752Z,98267.81
2018-07-22T15:39:52.896Z,98265.73
2018-07-22T15:42:22.107Z,98266.70
2018-07-22T15:44:51.253Z,98270.05
2018-07-22T15:47:20.466Z,98267.34
2018-07-22T15:49:49.634Z,98260.65
2018-07-22T15:52:18.794Z,98258.74
2018-07-22T15:54:47.954Z,98271.64
2018-07-22T15:57:17.169Z,98271.64
2018-07-22T15:59:46.509Z,98270.42
2018-07-22T16:02:15.750Z,98264.83
2018-07-22T16:04:44.905Z,98265.38
2018-07-22T16:07:14.053Z,98265.68
2018-07-22T16:09:43.197Z,98266.02
2018-07-22T16:12:12.398Z,98266.09
2018-07-22T16:14:41.540Z,98271.26
2018-07-22T16:17:10.745Z,98268.41
2018-07-22T16:19:39.996Z,98267.43
2018-07-22T16:22:09.249Z,98276.98
2018-07-22T16:24:38.529Z,98285.18
2018-07-22T16:27:07.958Z,98288.19
2018-07-22T16:29:37.196Z,98289.39
2018-07-22T16:32:06.404Z,98296.45
2018-07-22T16:34:35.609Z,98306.27
2018-07-22T16:37:04.757Z,98302.27
2018-07-22T16:39:33.963Z,98299.24
2018-07-22T16:42:03.191Z,98301.22
2018-07-22T16:44:32.349Z,98299.64
2018-07-22T16:47:01.729Z,98307.98
2018-07-22T16:49:30.894Z,98314.13
2018-07-22T16:52:00.126Z,98316.91
2018-07-22T16:54:29.263Z,98326.71
2018-07-22T16:56:58.429Z,98322.00
2018-07-22T16:59:27.645Z,98314.75
2018-07-22T17:01:56.817Z,98318.81
2018-07-22T17:04:26.010Z,98309.59
2018-07-22T17:06:55.199Z,98306.63
2018-07-22T17:09:24.381Z,98303.45
2018-07-22T17:11:53.546Z,98303.70
2018-07-22T17:14:22.742Z,98301.84
2018-07-22T17:16:51.932Z,98315.16
2018-07-22T17:19:21.210Z,98309.23
2018-07-22T17:21:50.500Z,98311.94
2018-07-22T17:24:19.661Z,98310.59
2018-07-22T17:26:48.898Z,98309.23
2018-07-22T17:29:18.046Z,98316.00
2018-07-22T17:31:48.150Z,98311.39
2018-07-22T17:34:17.319Z,98308.14
2018-07-22T17:36:46.493Z,98298.41
2018-07-22T17:39:15.649Z,98300.89
2018-07-22T17:41:44.814Z,98292.52
2018-07-22T17:44:14.093Z,98300.46
2018-07-22T17:46:43.274Z,98297.53
2018-07-22T17:49:12.491Z,98300.06
2018-07-22T17:51:41.687Z,98299.33
2018-07-22T17:54:10.890Z,98306.97
2018-07-22T17:56:40.082Z,98302.44
2018-07-22T17:59:09.287Z,98304.19
2018-07-22T18:01:38.461Z,98303.46
2018-07-22T18:04:07.667Z,98307.27
2018-07-22T18:06:36.846Z,98306.97
2018-07-22T18:09:09.391Z,98310.55
2018-07-22T18:11:38.769Z,98313.00
2018-07-22T18:14:08.026Z,98317.06
2018-07-22T18:16:37.214Z,98318.96
2018-07-22T18:19:06.507Z,98324.92
2018-07-22T18:21:35.856Z,98323.83
2018-07-22T18:24:05.353Z,98322.58
2018-07-22T18:26:34.547Z,98320.97
2018-07-22T18:29:03.729Z,98318.02
2018-07-22T18:31:32.942Z,98320.24
2018-07-22T18:34:02.188Z,98318.09
2018-07-22T18:36:31.314Z,98322.73
2018-07-22T18:39:00.513Z,98322.47
2018-07-22T18:41:29.700Z,98323.83
2018-07-22T18:43:58.843Z,98324.37
2018-07-22T18:46:28.022Z,98321.99
2018-07-22T18:48:57.530Z,98321.73
2018-07-22T18:51:26.813Z,98320.12
2018-07-22T18:53:56.521Z,98318.23
2018-07-22T18:56:25.674Z,98316.08
2018-07-22T18:58:54.956Z,98316.70
2018-07-22T19:01:24.181Z,98315.34
2018-07-22T19:03:53.457Z,98313.52
2018-07-22T19:06:22.682Z,98320.05
2018-07-22T19:08:51.902Z,98324.11
2018-07-22T19:11:21.060Z,98327.36
2018-07-22T19:13:50.333Z,98331.90
2018-07-22T19:16:19.537Z,98332.04
2018-07-22T19:18:48.747Z,98334.19
2018-07-22T19:21:17.934Z,98341.25
2018-07-22T19:23:47.123Z,98341.25
2018-07-22T19:26:16.353Z,98348.02
2018-07-22T19:28:45.578Z,98349.91
2018-07-22T19:31:14.806Z,98344.58
2018-07-22T19:33:43.948Z,98348.08
2018-07-22T19:36:13.142Z,98357.00
2018-07-22T19:38:42.411Z,98358.91
2018-07-22T19:41:11.597Z,98353.49
2018-07-22T19:43:40.807Z,98354.36
2018-07-22T19:46:09.999Z,98359.77
2018-07-22T19:48:39.166Z,98353.88
2018-07-22T19:51:08.567Z,98357.94
2018-07-22T19:53:39.386Z,98351.11
2018-07-22T19:56:08.555Z,98351.66
2018-07-22T19:58:37.732Z,98355.23
2018-07-22T20:01:07.133Z,98351.95
2018-07-22T20:03:36.324Z,98353.88
2018-07-22T20:06:05.629Z,98347.83
2018-07-22T20:08:34.872Z,98348.70
2018-07-22T20:11:04.075Z,98350.05
2018-07-22T20:13:33.261Z,98347.34
2018-07-22T20:16:02.433Z,98347.47
2018-07-22T20:18:32.403Z,98347.34
2018-07-22T20:21:01.598Z,98358.55
2018-07-22T20:23:30.777Z,98356.14
2018-07-22T20:25:59.946Z,98357.82
2018-07-22T20:28:29.155Z,98361.55
2018-07-22T20:30:58.376Z,98354.05
2018-07-22T20:33:27.576Z,98366.00
2018-07-22T20:35:56.749Z,98363.88
2018-07-22T20:38:25.949Z,98364.17
2018-07-22T20:40:55.133Z,98373.41
2018-07-22T20:43:24.330Z,98367.48
2018-07-22T20:45:53.540Z,98368.07
2018-07-22T20:48:22.728Z,98369.23
2018-07-22T20:50:52.117Z,98375.73
2018-07-22T20:53:21.325Z,98371.80
2018-07-22T20:55:50.472Z,98374.25
2018-07-22T20:58:19.640Z,98375.19
2018-07-22T21:00:48.845Z,98377.83
2018-07-22T21:03:17.977Z,98374.70
2018-07-22T21:05:47.147Z,98381.75
2018-07-22T21:08:16.313Z,98374.02
2018-07-22T21:10:45.458Z,98385.45
2018-07-22T21:13:20.529Z,98383.48
2018-07-22T21:15:50.028Z,98390.30
2018-07-22T21:18:19.194Z,98385.45
2018-07-22T21:20:48.406Z,98389.73
2018-07-22T21:23:17.609Z,98384.96
2018-07-22T21:25:46.755Z,98388.56
2018-07-22T21:28:15.936Z,98386.66
2018-07-22T21:30:45.250Z,98392.55
2018-07-22T21:33:14.489Z,98398.28
2018-07-22T21:35:43.651Z,98391.20
2018-07-22T21:38:12.809Z,98398.48
2018-07-22T21:40:41.964Z,98397.48
2018-07-22T21:43:11.189Z,98397.80
2018-07-22T21:45:40.344Z,98396.47
2018-07-22T21:48:09.540Z,98404.09
2018-07-22T21:50:38.695Z,98404.91
2018-07-22T21:53:08.123Z,98405.56
2018-07-22T21:55:37.262Z,98408.81
2018-07-22T21:58:06.480Z,98417.53
2018-07-22T22:00:40.807Z,98424.28
2018-07-22T22:03:10.018Z,98430.00
2018-07-22T22:05:39.343Z,98429.88
2018-07-22T22:08:08.513Z,98427.59
2018-07-22T22:10:37.653Z,98431.98
2018-07-22T22:13:07.832Z,98436.50
2018-07-22T22:15:38.399Z,98434.06
2018-07-22T22:18:07.686Z,98433.86
2018-07-22T22:20:36.805Z,98423.11
2018-07-22T22:23:06.055Z,98425.86
2018-07-22T22:25:35.347Z,98426.90
2018-07-22T22:28:04.490Z,98426.16
2018-07-22T22:30:33.740Z,98415.95
2018-07-22T22:33:02.909Z,98410.86
2018-07-22T22:35:32.043Z,98415.23
2018-07-22T22:38:01.198Z,98407.30
2018-07-22T22:40:30.352Z,98407.84
2018-07-22T22:42:59.492Z,98408.70
2018-07-22T22:45:28.670Z,98412.27
2018-07-22T22:47:57.885Z,98408.10
2018-07-22T22:50:27.058Z,98415.72
2018-07-22T22:52:56.293Z,98418.42
2018-07-22T22:55:25.456Z,98417.88
2018-07-22T22:58:05.774Z,98418.42
2018-07-22T23:00:35.014Z,98426.20
2018-07-22T23:03:04.249Z,98425.66
2018-07-22T23:05:33.483Z,98428.63
2018-07-22T23:08:02.632Z,98419.40
2018-07-22T23:10:31.817Z,98419.40
2018-07-22T23:13:00.993Z,98418.56
2018-07-22T23:15:30.157Z,98414.25
2018-07-22T23:17:59.411Z,98418.05
2018-07-22T23:20:28.574Z,98420.86
2018-07-22T23:22:57.780Z,98417.07
2018-07-22T23:25:26.923Z,98424.91
2018-07-22T23:27:56.104Z,98423.08
2018-07-22T23:30:25.288Z,98421.73
2018-07-22T23:32:54.469Z,98410.66
2018-07-22T23:35:23.641Z,98410.66
2018-07-22T23:37:52.864Z,98408.77
2018-07-22T23:40:22.128Z,98401.73
2018-07-22T23:42:51.343Z,98402.56
2018-07-22T23:45:20.506Z,98402.33
2018-07-22T23:47:49.671Z,98401.75
2018-07-22T23:50:18.836Z,98404.77
2018-07-22T23:52:48.672Z,98396.06
2018-07-22T23:55:17.832Z,98394.83
2018-07-22T23:57:47.012Z,98395.92
